Terminal Aerodrome Forecast
Issued by NWS Twin Cities, MN

Home | Current Version | Previous Version | Text Only | Print | Product List | Glossary On
Versions: 1 2 3 4 5 6 7 8 9 10 11 12 13 14
821
FTUS43 KMPX 241139
TAFEAU
TAF
KEAU 241139Z 2412/2512 02007KT P6SM SCT025 BKN040
      TEMPO 2412/2415 BKN025
     FM241600 04007KT P6SM BKN050
     FM250200 VRB03KT P6SM SCT070=

USA.gov is the U.S. government's official web portal to all federal, state and local government web resources and services.